Time;durP1;ratioP1;P1;durP2;ratioP2;P2;SDS_P1;SDS_P2;PMS_P1;PMS_P2;Temp;Humidity;BMP_temperature;BMP_pressure;BME280_temperature;BME280_humidity;BME280_pressure;Samples;Min_cycle;Max_cycle;Signal;HPM_P1;HPM_P2
2021/04/13 00:02:28;;;;;;;4.38;1.70;;;;;;;0.54;83.45;103418.03;5040385;28;20408;-71
2021/04/13 00:05:00;;;;;;;3.15;1.42;;;;;;;0.55;84.04;103416.31;5039144;28;20065;-71
2021/04/13 00:07:30;;;;;;;5.70;1.80;;;;;;;0.50;83.82;103421.34;5038658;28;20065;-71
2021/04/13 00:10:00;;;;;;;2.97;1.50;;;;;;;0.49;83.76;103419.53;5040000;28;20063;-71
2021/04/13 00:12:30;;;;;;;4.53;1.50;;;;;;;0.46;83.71;103419.41;5037309;28;20492;-71
2021/04/13 00:15:02;;;;;;;5.75;1.60;;;;;;;0.52;84.61;103422.31;5040053;28;20053;-71
2021/04/13 00:17:32;;;;;;;1.80;1.30;;;;;;;0.51;84.35;103414.34;5056423;28;20131;-71
2021/04/13 00:20:09;;;;;;;3.20;1.60;;;;;;;0.48;84.11;103420.38;5041800;28;20076;-71
2021/04/13 00:22:38;;;;;;;1.65;1.27;;;;;;;0.49;83.83;103418.63;5037116;28;20058;-71
2021/04/13 00:25:07;;;;;;;2.78;1.45;;;;;;;0.46;83.74;103419.41;5042121;28;20069;-72
2021/04/13 00:27:34;;;;;;;3.95;1.60;;;;;;;0.43;84.09;103415.72;5035916;28;20081;-72
2021/04/13 00:30:15;;;;;;;4.35;1.38;;;;;;;0.41;83.96;103412.09;5042843;28;20057;-71
2021/04/13 00:32:48;;;;;;;1.52;1.33;;;;;;;0.32;83.99;103413.44;5038792;28;20072;-71
2021/04/13 00:35:28;;;;;;;2.58;1.45;;;;;;;0.29;84.08;103412.34;5041330;28;20365;-71
2021/04/13 00:38:29;;;;;;;2.10;1.30;;;;;;;0.28;84.20;103421.06;5038727;28;20065;-71
2021/04/13 00:41:05;;;;;;;1.40;1.13;;;;;;;0.21;84.06;103416.34;5041636;28;20053;-71
2021/04/13 00:43:34;;;;;;;3.30;1.58;;;;;;;0.25;84.91;103424.44;5035858;28;20057;-71
2021/04/13 00:46:01;;;;;;;3.58;1.70;;;;;;;0.21;83.95;103419.84;5037387;28;20057;-71
2021/04/13 00:48:32;;;;;;;3.47;1.40;;;;;;;0.18;84.65;103417.97;5036517;28;20063;-71
2021/04/13 00:51:06;;;;;;;1.92;1.45;;;;;;;0.16;85.07;103421.34;5037382;28;20597;-71
2021/04/13 00:53:36;;;;;;;4.15;1.92;;;;;;;0.07;84.19;103421.75;5039525;28;20554;-71
2021/04/13 00:56:08;;;;;;;6.63;1.90;;;;;;;0.06;85.00;103412.06;5037141;28;20067;-71
2021/04/13 00:58:41;;;;;;;2.47;1.65;;;;;;;0.05;85.13;103417.25;5039596;28;20056;-71
2021/04/13 01:01:14;;;;;;;8.35;1.77;;;;;;;0.02;85.69;103418.00;5037936;28;20065;-71
2021/04/13 01:03:47;;;;;;;1.92;1.55;;;;;;;-0.10;84.79;103419.94;5035098;28;20137;-71
2021/04/13 01:06:26;;;;;;;7.50;2.00;;;;;;;-0.18;84.63;103416.94;5037362;28;20059;-70
2021/04/13 01:09:06;;;;;;;2.70;1.77;;;;;;;-0.20;85.97;103418.59;5051089;28;20368;-71
2021/04/13 01:11:39;;;;;;;1.85;1.60;;;;;;;-0.31;84.96;103417.97;5039385;28;20100;-71
2021/04/13 01:14:09;;;;;;;3.75;1.88;;;;;;;-0.31;86.11;103422.34;5040231;28;20099;-71
2021/04/13 01:16:41;;;;;;;4.50;1.67;;;;;;;-0.34;86.41;103427.41;5042647;28;20065;-71
2021/04/13 01:19:17;;;;;;;2.08;1.45;;;;;;;-0.40;86.09;103426.25;5039286;28;20120;-70
2021/04/13 01:21:58;;;;;;;2.60;1.75;;;;;;;-0.40;86.79;103428.00;5036475;28;20452;-71
2021/04/13 01:24:28;;;;;;;3.53;1.70;;;;;;;-0.46;86.72;103425.03;5040548;28;20045;-70
2021/04/13 01:26:56;;;;;;;4.57;1.83;;;;;;;-0.51;86.86;103424.78;5034900;28;20555;-71
2021/04/13 01:29:28;;;;;;;2.80;1.70;;;;;;;-0.50;87.58;103429.19;5040006;28;20402;-71
2021/04/13 01:31:58;;;;;;;2.03;1.45;;;;;;;-0.56;87.02;103426.25;5034992;28;20065;-70
2021/04/13 01:34:30;;;;;;;3.28;2.00;;;;;;;-0.56;87.42;103423.66;5039959;28;20057;-71
2021/04/13 01:37:14;;;;;;;2.78;1.70;;;;;;;-0.59;87.10;103426.97;5035432;28;20258;-70
2021/04/13 01:39:47;;;;;;;;;;;;;;;-0.65;86.67;103431.88;5038274;28;20060;-70
2021/04/13 01:42:16;;;;;;;3.85;1.60;;;;;;;-0.67;87.03;103420.41;5036473;28;19932;-71
2021/04/13 01:44:45;;;;;;;6.88;1.98;;;;;;;-0.68;87.30;103418.63;5036540;28;20060;-71
2021/04/13 01:47:16;;;;;;;4.07;1.70;;;;;;;-0.71;87.06;103428.94;5035804;28;20148;-70
2021/04/13 01:49:49;;;;;;;2.33;1.75;;;;;;;-0.69;87.76;103418.53;5038336;28;20048;-71
2021/04/13 01:52:24;;;;;;;4.18;2.00;;;;;;;-0.69;88.03;103427.28;5037363;28;20448;-70
2021/04/13 01:54:51;;;;;;;3.33;1.65;;;;;;;-0.71;87.70;103426.31;5037832;28;20049;-71
2021/04/13 01:57:29;;;;;;;3.25;1.73;;;;;;;-0.68;87.59;103433.44;5036510;28;20107;-71
2021/04/13 02:00:07;;;;;;;3.95;1.77;;;;;;;-0.71;87.84;103433.28;5038228;28;20056;-73
2021/04/13 02:02:41;;;;;;;3.08;1.80;;;;;;;-0.72;87.82;103439.34;5036015;28;20317;-72
2021/04/13 02:05:12;;;;;;;4.88;2.00;;;;;;;-0.71;88.31;103428.03;5036588;28;20065;-72
2021/04/13 02:07:50;;;;;;;3.67;2.20;;;;;;;-0.73;88.15;103432.28;5037041;28;20057;-72
2021/04/13 02:10:25;;;;;;;4.57;1.90;;;;;;;-0.76;87.67;103435.63;5041491;28;20068;-70
2021/04/13 02:12:55;;;;;;;4.10;2.15;;;;;;;-0.71;87.92;103441.16;5034624;28;20183;-71
2021/04/13 02:15:44;;;;;;;4.70;2.60;;;;;;;-0.67;88.08;103436.13;5040279;28;20103;-70
2021/04/13 02:18:17;;;;;;;4.93;2.22;;;;;;;-0.68;87.87;103441.28;5037091;28;20149;-71
2021/04/13 02:20:47;;;;;;;7.72;2.05;;;;;;;-0.68;87.82;103442.22;5039305;28;20060;-70
2021/04/13 02:23:21;;;;;;;4.63;2.30;;;;;;;-0.69;88.09;103448.28;5037527;28;20144;-70
2021/04/13 02:25:49;;;;;;;6.50;2.17;;;;;;;-0.71;87.42;103449.91;5038558;28;20443;-71
2021/04/13 02:28:17;;;;;;;4.28;2.30;;;;;;;-0.72;87.01;103455.06;5037843;28;20096;-70
2021/04/13 02:30:47;;;;;;;4.07;2.15;;;;;;;-0.72;87.83;103453.34;5037891;28;20074;-71
2021/04/13 02:33:24;;;;;;;3.25;2.05;;;;;;;-0.76;87.58;103452.28;5033847;28;20154;-72
2021/04/13 02:35:52;;;;;;;6.28;2.63;;;;;;;-0.71;88.09;103451.66;5036452;28;20154;-71
2021/04/13 02:38:25;;;;;;;3.63;2.00;;;;;;;-0.77;87.66;103450.47;5037337;28;20060;-70
2021/04/13 02:40:58;;;;;;;3.58;2.30;;;;;;;-0.79;87.34;103445.94;5041067;28;20149;-70
2021/04/13 02:43:29;;;;;;;6.13;2.67;;;;;;;-0.79;87.68;103449.47;5039672;28;20065;-70
2021/04/13 02:45:59;;;;;;;4.90;2.60;;;;;;;-0.83;87.54;103449.22;5039285;28;20053;-70
2021/04/13 02:48:29;;;;;;;5.43;2.28;;;;;;;-0.86;87.15;103451.69;5036425;28;20347;-70
2021/04/13 02:51:02;;;;;;;6.90;2.90;;;;;;;-0.90;87.49;103457.53;5039288;28;20072;-70
2021/04/13 02:53:35;;;;;;;4.72;2.35;;;;;;;-0.87;87.91;103458.66;5039974;28;20053;-70
2021/04/13 02:56:06;;;;;;;6.45;2.45;;;;;;;-0.90;87.73;103461.09;5034132;28;20064;-70
2021/04/13 02:58:42;;;;;;;5.00;2.28;;;;;;;-0.90;88.34;103468.03;5038960;28;20061;-71
2021/04/13 03:01:12;;;;;;;5.78;2.20;;;;;;;-0.88;88.08;103459.44;5034300;28;20053;-71
2021/04/13 03:03:42;;;;;;;5.88;2.33;;;;;;;-0.92;88.12;103459.19;5039785;28;20057;-71
2021/04/13 03:06:10;;;;;;;3.05;2.28;;;;;;;-0.95;88.32;103460.81;5040480;28;20148;-71
2021/04/13 03:08:41;;;;;;;3.35;2.13;;;;;;;-1.00;87.82;103457.03;5041221;28;20348;-71
2021/04/13 03:11:16;;;;;;;4.88;2.33;;;;;;;-1.00;88.39;103462.28;5040061;28;20064;-74
2021/04/13 03:13:44;;;;;;;4.47;2.72;;;;;;;-0.98;88.21;103454.50;5042675;28;20148;-74
2021/04/13 03:16:14;;;;;;;5.97;2.47;;;;;;;-1.00;87.72;103458.75;5040686;28;20088;-75
2021/04/13 03:18:44;;;;;;;4.88;2.10;;;;;;;-1.02;88.12;103461.28;5038761;28;20067;-75
2021/04/13 03:21:18;;;;;;;7.47;2.70;;;;;;;-1.03;88.31;103456.84;5042621;28;20080;-74
2021/04/13 03:23:47;;;;;;;5.82;2.88;;;;;;;-1.00;88.70;103456.13;5038618;28;20057;-74
2021/04/13 03:26:20;;;;;;;3.50;2.72;;;;;;;-1.01;88.87;103457.81;5040795;28;20061;-73
2021/04/13 03:28:54;;;;;;;4.15;2.47;;;;;;;-1.01;88.21;103462.19;5042013;28;20054;-75
2021/04/13 03:31:23;;;;;;;5.20;2.78;;;;;;;-0.94;88.76;103461.72;5038546;28;20455;-75
2021/04/13 03:33:51;;;;;;;4.53;3.38;;;;;;;-0.97;88.36;103458.91;5042674;28;20068;-74
2021/04/13 03:36:22;;;;;;;10.75;3.00;;;;;;;-0.99;88.61;103453.59;5037032;28;20136;-74
2021/04/13 03:38:54;;;;;;;5.97;3.10;;;;;;;-1.03;88.51;103456.84;5040598;28;20084;-74
2021/04/13 03:41:22;;;;;;;5.15;2.80;;;;;;;-1.07;88.41;103453.94;5038467;28;20057;-74
2021/04/13 03:43:55;;;;;;;6.63;3.13;;;;;;;-1.08;88.29;103457.41;5041974;28;20092;-74
2021/04/13 03:46:24;;;;;;;5.75;2.42;;;;;;;-1.14;88.20;103457.97;5037738;28;20064;-75
2021/04/13 03:48:53;;;;;;;5.25;3.05;;;;;;;-1.11;88.54;103459.84;5040911;28;20064;-74
2021/04/13 03:51:26;;;;;;;6.60;2.65;;;;;;;-1.17;88.21;103461.28;5040263;28;20064;-74
2021/04/13 03:53:54;;;;;;;6.22;2.88;;;;;;;-1.25;87.91;103454.69;5036921;28;20056;-74
2021/04/13 03:56:24;;;;;;;8.13;2.95;;;;;;;-1.31;88.01;103459.59;5037942;28;20071;-74
2021/04/13 03:58:52;;;;;;;2.67;2.38;;;;;;;-1.32;88.33;103457.78;5036433;28;20084;-75
2021/04/13 04:01:23;;;;;;;6.22;3.88;;;;;;;-1.31;88.99;103459.59;5040655;28;20063;-74
2021/04/13 04:03:55;;;;;;;8.45;3.15;;;;;;;-1.32;88.80;103460.41;5034234;28;20057;-74
2021/04/13 04:06:40;;;;;;;6.68;2.83;;;;;;;-1.26;89.30;103457.22;5040072;28;20049;-74
2021/04/13 04:09:20;;;;;;;5.68;3.00;;;;;;;-1.33;88.81;103458.59;5041443;28;20064;-74
2021/04/13 04:11:49;;;;;;;5.90;3.30;;;;;;;-1.29;89.73;103459.66;5041445;28;20072;-75
2021/04/13 04:14:19;;;;;;;4.53;2.72;;;;;;;-1.28;89.46;103469.34;5039352;28;20083;-75
2021/04/13 04:16:46;;;;;;;7.53;3.28;;;;;;;-1.29;89.71;103465.81;5038695;28;20061;-75
2021/04/13 04:19:17;;;;;;;6.68;3.00;;;;;;;-1.35;89.58;103461.09;5038936;28;20067;-73
2021/04/13 04:21:48;;;;;;;8.43;2.97;;;;;;;-1.39;89.37;103467.00;5039572;28;21483;-73
2021/04/13 04:24:22;;;;;;;4.88;2.88;;;;;;;-1.36;89.90;103469.81;5040378;28;20061;-75
2021/04/13 04:26:54;;;;;;;6.95;4.03;;;;;;;-1.28;90.39;103478.09;5042217;28;20060;-74
2021/04/13 04:29:35;;;;;;;5.00;2.47;;;;;;;-1.37;89.57;103470.59;5042268;28;20065;-75
2021/04/13 04:32:18;;;;;;;5.20;2.85;;;;;;;-1.36;90.06;103482.91;5043622;28;20080;-75
2021/04/13 04:34:54;;;;;;;9.00;4.28;;;;;;;-1.39;89.57;103471.34;5038215;28;20143;-72
2021/04/13 04:37:30;;;;;;;6.25;3.50;;;;;;;-1.41;89.59;103479.09;5040590;28;20064;-73
2021/04/13 04:40:44;;;;;;;6.20;3.50;;;;;;;-1.47;89.34;103486.59;5040197;28;20301;-74
2021/04/13 04:43:14;;;;;;;6.22;3.58;;;;;;;-1.45;89.81;103484.94;5043246;28;20053;-73
2021/04/13 04:45:51;;;;;;;6.25;3.60;;;;;;;-1.45;90.04;103486.69;5038008;28;20306;-73
2021/04/13 04:48:24;;;;;;;5.45;3.35;;;;;;;-1.41;89.64;103491.31;5044151;28;20481;-73
2021/04/13 04:50:53;;;;;;;7.97;3.05;;;;;;;-1.41;89.60;103486.97;5038316;28;20057;-73
2021/04/13 04:53:21;;;;;;;5.63;2.55;;;;;;;-1.46;89.42;103491.03;5041648;28;20095;-73
2021/04/13 04:55:49;;;;;;;3.78;2.53;;;;;;;-1.43;89.62;103493.84;5038800;28;20072;-74
2021/04/13 04:58:16;;;;;;;4.68;2.58;;;;;;;-1.37;89.86;103498.53;5040499;28;20057;-74
2021/04/13 05:00:43;;;;;;;5.72;3.47;;;;;;;-1.39;89.52;103493.19;5040216;28;20053;-73
2021/04/13 05:03:10;;;;;;;6.57;3.65;;;;;;;-1.37;89.48;103488.94;5036910;28;20069;-73
2021/04/13 05:05:37;;;;;;;6.25;3.28;;;;;;;-1.34;89.80;103491.75;5039044;28;20075;-74
2021/04/13 05:08:04;;;;;;;6.40;3.20;;;;;;;-1.36;89.50;103497.72;5039086;28;20419;-74
2021/04/13 05:10:31;;;;;;;5.63;2.80;;;;;;;-1.29;89.64;103498.97;5038274;28;20049;-74
2021/04/13 05:12:58;;;;;;;5.93;2.55;;;;;;;-1.28;89.75;103504.28;5039702;28;20053;-73
2021/04/13 05:15:26;;;;;;;18.77;3.88;;;;;;;-1.18;90.07;103508.38;5039209;28;20328;-73
2021/04/13 05:17:53;;;;;;;7.00;3.70;;;;;;;-1.22;89.59;103507.28;5043414;28;20157;-73
2021/04/13 05:20:20;;;;;;;4.78;2.63;;;;;;;-1.17;89.73;103512.81;5038768;28;20065;-72
2021/04/13 05:22:47;;;;;;;4.93;2.70;;;;;;;-1.13;89.33;103512.16;5038859;28;20511;-73
2021/04/13 05:25:15;;;;;;;3.30;2.35;;;;;;;-1.07;89.33;103517.78;5036067;28;20057;-73
2021/04/13 05:27:42;;;;;;;6.18;3.03;;;;;;;-0.99;89.30;103523.44;5039803;28;20135;-72
2021/04/13 05:30:13;;;;;;;5.68;3.25;;;;;;;-0.95;89.19;103520.22;5041252;28;20067;-73
2021/04/13 05:32:41;;;;;;;5.50;3.35;;;;;;;-0.77;89.17;103526.53;5038145;28;20120;-73
2021/04/13 05:35:10;;;;;;;9.52;3.03;;;;;;;-0.62;88.88;103528.19;5038227;28;20273;-72
2021/04/13 05:37:37;;;;;;;3.47;2.30;;;;;;;-0.51;87.82;103531.44;5036910;28;20071;-73
2021/04/13 05:40:06;;;;;;;5.68;2.58;;;;;;;-0.27;87.80;103534.56;5038933;28;20144;-73
2021/04/13 05:42:34;;;;;;;6.97;3.55;;;;;;;-0.10;87.51;103533.75;5039185;28;20057;-73
2021/04/13 05:45:04;;;;;;;8.93;3.75;;;;;;;0.10;86.92;103531.28;5034638;28;20065;-72
2021/04/13 05:47:32;;;;;;;8.05;3.20;;;;;;;0.31;86.37;103539.44;5039065;28;20056;-73
2021/04/13 05:50:00;;;;;;;6.03;2.83;;;;;;;0.58;85.33;103532.13;5038432;28;20057;-73
2021/04/13 05:52:27;;;;;;;4.03;2.13;;;;;;;0.78;84.86;103541.00;5040812;28;20065;-73
2021/04/13 05:54:54;;;;;;;5.93;2.65;;;;;;;1.04;84.53;103544.97;5038074;28;20048;-73
2021/04/13 05:57:27;;;;;;;6.97;2.60;;;;;;;1.19;83.45;103541.28;5038462;28;20068;-73
2021/04/13 05:59:55;;;;;;;8.45;3.25;;;;;;;1.48;83.18;103542.72;5039207;28;20400;-73
2021/04/13 06:02:22;;;;;;;5.53;2.67;;;;;;;1.77;82.57;103554.69;5038155;28;20072;-73
2021/04/13 06:04:51;;;;;;;6.03;2.92;;;;;;;2.09;82.14;103550.00;5039967;28;20064;-73
2021/04/13 06:07:19;;;;;;;4.97;2.70;;;;;;;2.37;81.48;103561.81;5037400;28;20045;-73
2021/04/13 06:09:47;;;;;;;5.32;2.42;;;;;;;2.60;80.50;103545.28;5042503;28;20065;-75
2021/04/13 06:12:15;;;;;;;4.13;2.50;;;;;;;2.89;80.00;103550.03;5039623;28;20056;-76
2021/04/13 06:14:42;;;;;;;6.90;2.60;;;;;;;3.11;79.21;103549.19;5041580;28;20067;-76
2021/04/13 06:17:10;;;;;;;7.60;2.70;;;;;;;3.42;78.46;103545.19;5040467;28;20061;-75
2021/04/13 06:19:38;;;;;;;5.90;2.60;;;;;;;3.55;77.09;103552.78;5045536;28;20076;-75
2021/04/13 06:22:05;;;;;;;7.03;2.70;;;;;;;3.80;77.29;103553.72;5040694;28;20053;-76
2021/04/13 06:24:32;;;;;;;4.72;2.60;;;;;;;4.16;76.81;103556.03;5040399;28;20064;-78
2021/04/13 06:26:59;;;;;;;4.75;2.83;;;;;;;4.36;74.87;103548.81;5040478;28;20071;-74
2021/04/13 06:29:34;;;;;;;4.78;2.45;;;;;;;4.61;74.57;103554.16;5034221;28;20490;-75
2021/04/13 06:32:01;;;;;;;5.75;2.45;;;;;;;4.86;74.34;103557.69;5038774;28;20355;-76
2021/04/13 06:34:28;;;;;;;6.75;2.42;;;;;;;5.05;73.42;103557.47;5041285;28;20088;-77
2021/04/13 06:36:56;;;;;;;6.32;2.50;;;;;;;5.28;72.89;103556.44;5036753;28;20064;-77
2021/04/13 06:39:23;;;;;;;5.18;2.38;;;;;;;5.51;72.43;103563.38;5040061;28;20355;-77
2021/04/13 06:42:19;;;;;;;6.03;2.50;;;;;;;5.76;71.72;103565.06;5043283;28;20071;-75
2021/04/13 06:45:13;;;;;;;7.25;2.80;;;;;;;6.00;69.39;103560.53;5058986;28;20072;-76
2021/04/13 06:48:01;;;;;;;4.25;2.35;;;;;;;6.15;68.03;103566.28;5033181;28;20061;-76
2021/04/13 06:50:32;;;;;;;5.68;2.38;;;;;;;6.34;68.93;103563.31;5045056;28;20071;-76
2021/04/13 06:53:15;;;;;;;4.53;2.28;;;;;;;6.64;67.91;103565.06;5045360;28;20053;-76
2021/04/13 06:56:16;;;;;;;7.47;2.58;;;;;;;6.66;64.33;103566.00;5037828;28;20064;-76
2021/04/13 06:59:00;;;;;;;3.47;2.17;;;;;;;6.82;65.84;103567.28;5032266;28;20061;-76
2021/04/13 07:01:31;;;;;;;4.35;1.77;;;;;;;6.88;63.58;103569.25;5041897;28;20065;-76
2021/04/13 07:04:04;;;;;;;2.97;1.55;;;;;;;6.68;61.67;103563.38;5041476;28;20159;-76
2021/04/13 07:06:38;;;;;;;4.15;1.77;;;;;;;6.82;62.09;103579.69;5042535;28;20061;-77
2021/04/13 07:09:14;;;;;;;2.95;1.35;;;;;;;6.68;61.16;103574.88;5044244;28;20088;-77
2021/04/13 07:11:49;;;;;;;1.90;1.40;;;;;;;6.72;58.73;103587.41;5040830;28;20068;-77
2021/04/13 07:14:23;;;;;;;2.58;1.42;;;;;;;6.43;57.34;103588.31;5041382;28;20110;-77
2021/04/13 07:16:56;;;;;;;5.80;1.85;;;;;;;6.83;57.59;103586.78;5036908;28;20466;-77
2021/04/13 07:19:31;;;;;;;2.75;1.63;;;;;;;7.33;57.85;103583.66;5056298;28;20464;-76
2021/04/13 07:22:03;;;;;;;4.00;1.75;;;;;;;7.53;58.05;103579.75;5043863;28;20064;-76
2021/04/13 07:24:39;;;;;;;2.55;1.30;;;;;;;7.98;56.17;103578.09;5039809;28;20168;-76
2021/04/13 07:27:13;;;;;;;3.92;1.45;;;;;;;7.82;55.50;103580.41;5040997;28;20316;-76
2021/04/13 07:29:45;;;;;;;3.60;1.30;;;;;;;8.45;55.34;103580.94;5042463;28;20060;-76
2021/04/13 07:32:16;;;;;;;4.80;1.77;;;;;;;8.06;55.61;103578.28;5039125;28;20061;-77
2021/04/13 07:34:46;;;;;;;3.40;1.40;;;;;;;7.79;55.15;103583.00;5040850;28;20061;-77
2021/04/13 07:37:16;;;;;;;2.88;1.25;;;;;;;6.69;56.22;103582.00;5040958;28;20064;-75
2021/04/13 07:39:48;;;;;;;2.58;1.38;;;;;;;6.95;55.88;103587.13;5043270;28;20142;-77
2021/04/13 07:42:20;;;;;;;2.80;0.95;;;;;;;7.36;56.65;103589.94;5039818;28;20127;-74
2021/04/13 07:45:05;;;;;;;4.25;1.30;;;;;;;7.83;54.78;103590.19;5040968;28;20072;-76
2021/04/13 07:47:56;;;;;;;3.20;1.00;;;;;;;7.46;55.03;103591.09;5023592;28;20436;-75
2021/04/13 07:50:35;;;;;;;3.22;1.20;;;;;;;7.04;54.01;103592.66;5038534;28;20061;-75
2021/04/13 07:53:12;;;;;;;1.33;0.98;;;;;;;6.46;55.32;103596.38;5040202;28;20118;-74
2021/04/13 07:55:49;;;;;;;2.10;1.20;;;;;;;7.56;55.22;103593.09;5043179;28;20059;-74
2021/04/13 07:58:29;;;;;;;2.53;1.15;;;;;;;8.03;51.84;103593.28;5040971;28;20065;-74
2021/04/13 08:00:57;;;;;;;3.35;1.25;;;;;;;7.86;50.76;103592.03;5041558;28;20064;-74
2021/04/13 08:03:27;;;;;;;1.70;1.02;;;;;;;6.69;51.72;103602.31;5042659;28;20054;-75
2021/04/13 08:05:56;;;;;;;2.30;0.88;;;;;;;6.76;54.48;103595.41;5042963;28;20072;-75
2021/04/13 08:08:29;;;;;;;3.47;1.40;;;;;;;7.05;54.12;103602.44;5042291;28;20451;-74
2021/04/13 08:11:11;;;;;;;1.58;1.10;;;;;;;7.94;51.84;103601.06;5057588;28;20475;-74
2021/04/13 08:14:15;;;;;;;2.88;1.40;;;;;;;8.32;51.64;103592.16;5040868;28;20140;-74
2021/04/13 08:16:43;;;;;;;3.40;1.42;;;;;;;8.52;50.55;103584.63;5038063;28;20092;-74
2021/04/13 08:19:23;;;;;;;1.35;1.10;;;;;;;8.44;50.86;103592.44;5036864;28;20139;-74
2021/04/13 08:22:00;;;;;;;2.22;1.15;;;;;;;7.20;52.79;103601.03;5044180;28;20449;-74
2021/04/13 08:24:37;;;;;;;3.38;1.10;;;;;;;7.00;54.62;103606.72;5038647;28;20084;-75
2021/04/13 08:27:26;;;;;;;4.38;1.42;;;;;;;6.81;54.96;103605.31;5041794;28;20169;-75
2021/04/13 08:30:02;;;;;;;3.97;1.15;;;;;;;7.53;53.13;103590.38;5038611;28;20057;-74
2021/04/13 08:32:53;;;;;;;4.22;1.40;;;;;;;8.21;51.64;103595.47;5040652;28;20542;-74
2021/04/13 08:35:31;;;;;;;1.67;1.10;;;;;;;7.90;52.14;103601.88;5039498;28;20057;-74
2021/04/13 08:38:28;;;;;;;5.57;1.30;;;;;;;8.31;51.17;103600.97;5039360;28;20478;-74
2021/04/13 08:41:19;;;;;;;1.17;1.08;;;;;;;7.64;51.80;103601.25;5030966;28;20446;-74
2021/04/13 08:43:54;;;;;;;3.45;1.48;;;;;;;8.47;51.61;103602.25;5033342;28;20479;-74
2021/04/13 08:46:30;;;;;;;1.95;1.20;;;;;;;7.74;50.03;103607.69;5036884;28;20057;-73
2021/04/13 08:49:05;;;;;;;1.75;1.02;;;;;;;8.45;50.89;103604.88;5032390;28;20084;-74
2021/04/13 08:51:36;;;;;;;2.35;1.42;;;;;;;8.68;49.59;103597.34;5040140;28;20064;-74
2021/04/13 08:54:15;;;;;;;2.72;1.30;;;;;;;8.87;47.44;103592.38;5035523;28;20068;-73
2021/04/13 08:56:55;;;;;;;1.60;1.20;;;;;;;8.85;47.59;103592.34;5039634;28;20056;-74
2021/04/13 08:59:36;;;;;;;3.78;0.93;;;;;;;9.06;48.73;103593.59;5036878;28;20061;-74
2021/04/13 09:02:15;;;;;;;3.10;1.38;;;;;;;9.23;48.90;103586.84;5039829;28;20065;-74
2021/04/13 09:04:43;;;;;;;3.17;1.23;;;;;;;9.27;48.91;103598.44;5033620;28;20454;-74
2021/04/13 09:07:24;;;;;;;3.45;1.33;;;;;;;9.04;46.61;103592.69;5038552;28;20502;-74
2021/04/13 09:09:58;;;;;;;1.95;1.20;;;;;;;9.44;47.19;103591.63;5038836;28;20143;-74
2021/04/13 09:12:30;;;;;;;1.52;0.88;;;;;;;8.68;46.40;103589.34;5038186;28;20063;-74
2021/04/13 09:15:11;;;;;;;3.95;1.30;;;;;;;9.03;47.12;103589.13;5036908;28;20061;-74
2021/04/13 09:17:44;;;;;;;2.45;1.27;;;;;;;9.42;46.49;103585.38;5038184;28;20072;-73
2021/04/13 09:20:20;;;;;;;4.88;1.38;;;;;;;9.44;46.09;103588.94;5038256;28;20429;-74
2021/04/13 09:22:58;;;;;;;4.45;1.20;;;;;;;9.90;45.95;103583.44;5036862;28;20061;-74
2021/04/13 09:25:33;;;;;;;2.00;1.20;;;;;;;10.57;46.00;103582.53;5037179;28;20168;-74
2021/04/13 09:28:08;;;;;;;2.03;1.10;;;;;;;9.45;46.96;103596.09;5035632;28;20108;-73
2021/04/13 09:30:37;;;;;;;1.17;1.02;;;;;;;9.69;47.66;103592.03;5035352;28;20072;-74
2021/04/13 09:33:12;;;;;;;2.80;1.25;;;;;;;9.88;45.83;103583.41;5038314;28;20065;-74
2021/04/13 09:36:13;;;;;;;2.22;1.08;;;;;;;10.74;45.68;103574.72;5033811;28;20523;-74
2021/04/13 09:38:54;;;;;;;2.35;1.10;;;;;;;11.71;44.90;103578.25;5016999;28;20061;-75
2021/04/13 09:41:43;;;;;;;1.83;1.15;;;;;;;9.75;45.56;103596.53;5035965;28;20064;-74
2021/04/13 09:44:26;;;;;;;0.90;0.90;;;;;;;10.51;43.50;103579.84;5042221;28;20278;-74
2021/04/13 09:47:03;;;;;;;1.40;1.00;;;;;;;10.41;44.16;103584.16;5036684;28;20345;-74
2021/04/13 09:49:59;;;;;;;4.00;1.30;;;;;;;11.35;42.84;103575.31;5042390;28;20060;-74
2021/04/13 09:52:50;;;;;;;1.17;0.90;;;;;;;10.89;41.08;103579.34;5024873;28;20064;-75
2021/04/13 09:55:30;;;;;;;3.30;1.10;;;;;;;8.87;43.83;103595.97;5042057;28;20308;-74
2021/04/13 09:58:32;;;;;;;3.15;1.30;;;;;;;9.32;44.30;103588.75;5034500;28;20088;-74
2021/04/13 10:01:13;;;;;;;2.08;1.33;;;;;;;9.02;45.32;103592.66;5043816;28;20072;-74
2021/04/13 10:04:06;;;;;;;1.55;1.20;;;;;;;10.07;43.36;103581.91;5035967;28;20148;-73
2021/04/13 10:06:36;;;;;;;1.65;1.10;;;;;;;10.59;42.31;103575.44;5042223;28;20065;-74
2021/04/13 10:09:08;;;;;;;1.75;1.02;;;;;;;10.53;41.04;103575.41;5034692;28;20156;-74
2021/04/13 10:12:01;;;;;;;0.88;0.88;;;;;;;10.96;43.00;103575.84;5040420;28;20063;-75
2021/04/13 10:14:50;;;;;;;1.55;1.00;;;;;;;11.72;41.91;103567.56;5037159;28;20628;-74
2021/04/13 10:17:31;;;;;;;2.60;1.27;;;;;;;10.39;43.91;103575.25;5042519;28;20057;-74
2021/04/13 10:20:26;;;;;;;1.48;0.82;;;;;;;10.26;45.12;103575.03;5040718;28;20056;-75
2021/04/13 10:23:09;;;;;;;2.92;1.23;;;;;;;9.84;46.39;103581.59;5041053;28;20068;-74
2021/04/13 10:26:04;;;;;;;1.90;1.20;;;;;;;9.00;45.79;103575.75;5041806;28;20083;-75
2021/04/13 10:29:00;;;;;;;1.83;1.17;;;;;;;9.14;44.80;103576.00;5037234;28;20052;-75
2021/04/13 10:31:57;;;;;;;3.25;1.30;;;;;;;10.10;45.18;103573.94;5044443;28;20061;-74
2021/04/13 10:35:15;;;;;;;2.70;1.30;;;;;;;10.53;43.37;103562.03;5020142;28;20056;-75
2021/04/13 10:38:13;;;;;;;2.58;1.42;;;;;;;9.78;43.36;103560.16;5003367;28;20065;-74
2021/04/13 10:41:11;;;;;;;2.58;1.23;;;;;;;9.32;44.57;103578.09;5059317;28;20087;-74
2021/04/13 10:44:21;;;;;;;1.60;1.00;;;;;;;8.85;44.00;103564.81;5041045;28;20057;-74
2021/04/13 10:46:52;;;;;;;1.70;1.20;;;;;;;8.67;45.37;103568.94;5039676;28;20104;-74
2021/04/13 10:49:54;;;;;;;3.85;1.20;;;;;;;8.17;45.66;103569.69;5042783;28;20049;-74
2021/04/13 10:52:48;;;;;;;1.25;1.05;;;;;;;8.89;45.63;103569.38;5042501;28;20414;-74
2021/04/13 10:55:20;;;;;;;;;;;;;;;9.94;44.08;103563.91;5035702;28;20065;-74
2021/04/13 10:58:18;;;;;;;2.80;1.52;;;;;;;10.24;44.11;103559.88;5040439;28;20271;-75
2021/04/13 11:01:08;;;;;;;2.20;1.27;;;;;;;11.69;42.84;103548.81;5041293;28;20156;-74
2021/04/13 11:04:10;;;;;;;1.25;1.15;;;;;;;11.24;41.68;103552.97;5055894;28;20183;-75
2021/04/13 11:07:20;;;;;;;1.77;1.20;;;;;;;10.38;39.93;103555.63;5042731;28;20065;-74
2021/04/13 11:10:27;;;;;;;2.08;1.17;;;;;;;9.81;39.21;103557.53;5038637;28;20069;-75
2021/04/13 11:13:28;;;;;;;1.58;1.20;;;;;;;9.87;41.15;103568.28;5040660;28;20115;-74
2021/04/13 11:16:43;;;;;;;2.65;1.30;;;;;;;9.16;40.94;103561.84;5039744;28;20119;-75
2021/04/13 11:19:20;;;;;;;1.20;1.10;;;;;;;8.84;41.86;103558.63;5039486;28;20053;-75
2021/04/13 11:22:21;;;;;;;1.20;1.10;;;;;;;8.65;41.14;103556.47;5038750;28;20397;-75
2021/04/13 11:25:26;;;;;;;1.85;1.10;;;;;;;9.17;41.30;103554.75;5041638;28;20063;-75
2021/04/13 11:28:42;;;;;;;0.90;0.90;;;;;;;9.20;44.06;103554.81;5038711;28;20049;-74
2021/04/13 11:31:32;;;;;;;1.77;0.90;;;;;;;9.21;42.71;103553.03;5036441;28;20455;-74
2021/04/13 11:34:17;;;;;;;1.85;1.15;;;;;;;8.94;42.72;103554.38;5039577;28;20444;-72
2021/04/13 11:37:04;;;;;;;2.05;1.15;;;;;;;9.75;41.14;103544.09;5039556;28;20136;-72
2021/04/13 11:39:38;;;;;;;2.28;1.40;;;;;;;9.85;40.45;103539.81;5043826;28;20392;-72
2021/04/13 11:42:19;;;;;;;3.05;1.30;;;;;;;9.42;40.81;103537.41;5041961;28;20056;-72
2021/04/13 11:45:02;;;;;;;2.00;1.20;;;;;;;9.19;39.90;103537.00;5039581;28;20064;-72
2021/04/13 11:47:36;;;;;;;1.77;1.10;;;;;;;8.96;40.67;103539.31;5040214;28;20399;-72
2021/04/13 11:50:11;;;;;;;2.50;1.20;;;;;;;9.32;39.77;103538.13;5040749;28;20072;-72
2021/04/13 11:52:43;;;;;;;;;;;;;;;9.51;39.83;103536.63;5039181;28;20486;-72
2021/04/13 11:55:39;;;;;;;0.90;0.90;;;;;;;9.70;40.19;103529.81;5036147;28;20489;-72
2021/04/13 11:58:13;;;;;;;1.05;1.05;;;;;;;8.82;39.03;103533.72;5037897;28;20096;-72
2021/04/13 12:00:40;;;;;;;2.25;1.15;;;;;;;9.75;40.49;103528.09;5041331;28;20049;-72
2021/04/13 12:03:22;;;;;;;1.33;1.15;;;;;;;9.20;40.13;103529.94;5037283;28;20068;-72
2021/04/13 12:05:50;;;;;;;1.35;1.33;;;;;;;9.84;36.23;103530.91;5041754;28;20139;-72
2021/04/13 12:08:49;;;;;;;2.17;1.38;;;;;;;9.23;37.51;103538.88;5037084;28;20183;-72
2021/04/13 12:11:41;;;;;;;1.13;1.10;;;;;;;9.22;36.81;103531.75;5040473;28;20072;-72
2021/04/13 12:14:26;;;;;;;1.77;1.35;;;;;;;9.34;37.42;103526.59;5038396;28;20061;-72
2021/04/13 12:17:02;;;;;;;;;;;;;;;9.17;38.08;103533.44;5039419;28;20062;-71